sensor_id;sensor_type;location;lat;lon;timestamp;P1;durP1;ratioP1;P2;durP2;ratioP2
52564;SDS011;38460;53.106;7.004;2023-08-06T00:00:24;9.00;;;7.53;;
52564;SDS011;38460;53.106;7.004;2023-08-06T00:02:50;11.20;;;7.85;;
52564;SDS011;38460;53.106;7.004;2023-08-06T00:05:16;9.75;;;8.18;;
52564;SDS011;38460;53.106;7.004;2023-08-06T00:07:46;16.60;;;7.60;;
52564;SDS011;38460;53.106;7.004;2023-08-06T00:10:12;10.55;;;8.75;;
52564;SDS011;38460;53.106;7.004;2023-08-06T00:12:38;11.25;;;8.70;;
52564;SDS011;38460;53.106;7.004;2023-08-06T00:15:04;12.30;;;9.52;;
52564;SDS011;38460;53.106;7.004;2023-08-06T00:17:30;13.50;;;10.10;;
52564;SDS011;38460;53.106;7.004;2023-08-06T00:19:56;16.85;;;10.65;;
52564;SDS011;38460;53.106;7.004;2023-08-06T00:22:22;14.07;;;10.85;;
52564;SDS011;38460;53.106;7.004;2023-08-06T00:24:47;16.40;;;10.43;;
52564;SDS011;38460;53.106;7.004;2023-08-06T00:27:13;13.43;;;10.50;;
52564;SDS011;38460;53.106;7.004;2023-08-06T00:29:39;13.70;;;10.40;;
52564;SDS011;38460;53.106;7.004;2023-08-06T00:32:05;17.95;;;11.60;;
52564;SDS011;38460;53.106;7.004;2023-08-06T00:34:30;15.52;;;11.25;;
52564;SDS011;38460;53.106;7.004;2023-08-06T00:36:56;17.38;;;13.05;;
52564;SDS011;38460;53.106;7.004;2023-08-06T00:39:22;16.02;;;13.38;;
52564;SDS011;38460;53.106;7.004;2023-08-06T00:41:48;18.45;;;13.27;;
52564;SDS011;38460;53.106;7.004;2023-08-06T00:44:13;15.32;;;11.95;;
52564;SDS011;38460;53.106;7.004;2023-08-06T00:46:39;16.30;;;12.77;;
52564;SDS011;38460;53.106;7.004;2023-08-06T00:49:05;19.05;;;12.77;;
52564;SDS011;38460;53.106;7.004;2023-08-06T00:51:34;16.40;;;13.15;;
52564;SDS011;38460;53.106;7.004;2023-08-06T00:54:00;18.52;;;14.75;;
52564;SDS011;38460;53.106;7.004;2023-08-06T00:56:27;16.15;;;13.93;;
52564;SDS011;38460;53.106;7.004;2023-08-06T00:58:53;17.58;;;15.00;;
52564;SDS011;38460;53.106;7.004;2023-08-06T01:01:19;21.73;;;15.18;;
52564;SDS011;38460;53.106;7.004;2023-08-06T01:03:45;19.63;;;15.45;;
52564;SDS011;38460;53.106;7.004;2023-08-06T01:06:11;21.88;;;16.75;;
52564;SDS011;38460;53.106;7.004;2023-08-06T01:14:30;21.77;;;15.20;;
52564;SDS011;38460;53.106;7.004;2023-08-06T01:17:15;20.48;;;16.65;;
52564;SDS011;38460;53.106;7.004;2023-08-06T01:19:42;21.30;;;15.70;;
52564;SDS011;38460;53.106;7.004;2023-08-06T01:22:07;20.92;;;14.73;;
52564;SDS011;38460;53.106;7.004;2023-08-06T01:24:33;20.33;;;15.73;;
52564;SDS011;38460;53.106;7.004;2023-08-06T01:27:03;18.05;;;13.68;;
52564;SDS011;38460;53.106;7.004;2023-08-06T01:29:35;19.00;;;13.90;;
52564;SDS011;38460;53.106;7.004;2023-08-06T01:32:08;18.58;;;13.43;;
52564;SDS011;38460;53.106;7.004;2023-08-06T01:34:35;17.13;;;13.57;;
52564;SDS011;38460;53.106;7.004;2023-08-06T01:37:06;17.27;;;12.73;;
52564;SDS011;38460;53.106;7.004;2023-08-06T01:39:35;16.40;;;12.90;;
52564;SDS011;38460;53.106;7.004;2023-08-06T01:42:01;16.05;;;12.00;;
52564;SDS011;38460;53.106;7.004;2023-08-06T01:44:27;16.52;;;11.95;;
52564;SDS011;38460;53.106;7.004;2023-08-06T01:46:53;17.30;;;12.32;;
52564;SDS011;38460;53.106;7.004;2023-08-06T01:49:18;16.80;;;11.95;;
52564;SDS011;38460;53.106;7.004;2023-08-06T01:51:44;14.05;;;11.38;;
52564;SDS011;38460;53.106;7.004;2023-08-06T01:54:10;16.50;;;11.80;;
52564;SDS011;38460;53.106;7.004;2023-08-06T01:56:35;18.13;;;10.82;;
52564;SDS011;38460;53.106;7.004;2023-08-06T01:59:01;12.77;;;10.18;;
52564;SDS011;38460;53.106;7.004;2023-08-06T02:01:27;14.27;;;10.38;;
52564;SDS011;38460;53.106;7.004;2023-08-06T02:03:52;15.85;;;11.55;;
52564;SDS011;38460;53.106;7.004;2023-08-06T02:06:18;13.48;;;9.40;;
52564;SDS011;38460;53.106;7.004;2023-08-06T02:08:44;12.10;;;8.60;;
52564;SDS011;38460;53.106;7.004;2023-08-06T02:11:10;13.60;;;9.35;;
52564;SDS011;38460;53.106;7.004;2023-08-06T02:13:35;11.25;;;8.90;;
52564;SDS011;38460;53.106;7.004;2023-08-06T02:16:01;11.10;;;8.25;;
52564;SDS011;38460;53.106;7.004;2023-08-06T02:18:27;11.38;;;9.18;;
52564;SDS011;38460;53.106;7.004;2023-08-06T02:20:56;11.00;;;9.43;;
52564;SDS011;38460;53.106;7.004;2023-08-06T02:23:23;14.07;;;9.63;;
52564;SDS011;38460;53.106;7.004;2023-08-06T02:26:03;11.98;;;8.85;;
52564;SDS011;38460;53.106;7.004;2023-08-06T02:28:30;12.38;;;9.45;;
52564;SDS011;38460;53.106;7.004;2023-08-06T02:30:56;13.50;;;9.77;;
52564;SDS011;38460;53.106;7.004;2023-08-06T02:33:22;12.43;;;9.48;;
52564;SDS011;38460;53.106;7.004;2023-08-06T02:35:47;11.75;;;9.07;;
52564;SDS011;38460;53.106;7.004;2023-08-06T02:38:13;12.73;;;9.77;;
52564;SDS011;38460;53.106;7.004;2023-08-06T02:40:43;12.38;;;9.45;;
52564;SDS011;38460;53.106;7.004;2023-08-06T02:43:10;13.00;;;9.88;;
52564;SDS011;38460;53.106;7.004;2023-08-06T02:45:35;16.38;;;10.32;;
52564;SDS011;38460;53.106;7.004;2023-08-06T02:48:01;11.45;;;8.63;;
52564;SDS011;38460;53.106;7.004;2023-08-06T02:50:27;12.65;;;9.35;;
52564;SDS011;38460;53.106;7.004;2023-08-06T02:52:53;11.90;;;9.13;;
52564;SDS011;38460;53.106;7.004;2023-08-06T02:55:19;13.93;;;10.38;;
52564;SDS011;38460;53.106;7.004;2023-08-06T02:57:45;14.82;;;10.13;;
52564;SDS011;38460;53.106;7.004;2023-08-06T03:00:10;12.38;;;9.38;;
52564;SDS011;38460;53.106;7.004;2023-08-06T03:02:37;14.23;;;10.77;;
52564;SDS011;38460;53.106;7.004;2023-08-06T03:05:02;11.70;;;8.57;;
52564;SDS011;38460;53.106;7.004;2023-08-06T03:07:29;12.68;;;10.13;;
52564;SDS011;38460;53.106;7.004;2023-08-06T03:09:54;14.48;;;10.25;;
52564;SDS011;38460;53.106;7.004;2023-08-06T03:12:20;13.40;;;9.38;;
52564;SDS011;38460;53.106;7.004;2023-08-06T03:14:46;12.07;;;9.55;;
52564;SDS011;38460;53.106;7.004;2023-08-06T03:17:11;13.40;;;9.48;;
52564;SDS011;38460;53.106;7.004;2023-08-06T03:19:37;11.90;;;9.40;;
52564;SDS011;38460;53.106;7.004;2023-08-06T03:22:03;12.88;;;9.65;;
52564;SDS011;38460;53.106;7.004;2023-08-06T03:24:29;13.18;;;10.15;;
52564;SDS011;38460;53.106;7.004;2023-08-06T03:26:54;12.95;;;9.80;;
52564;SDS011;38460;53.106;7.004;2023-08-06T03:29:20;14.55;;;10.43;;
52564;SDS011;38460;53.106;7.004;2023-08-06T03:31:47;14.30;;;10.75;;
52564;SDS011;38460;53.106;7.004;2023-08-06T03:34:13;12.02;;;8.55;;
52564;SDS011;38460;53.106;7.004;2023-08-06T03:36:38;10.90;;;9.10;;
52564;SDS011;38460;53.106;7.004;2023-08-06T03:39:04;13.30;;;10.00;;
52564;SDS011;38460;53.106;7.004;2023-08-06T03:41:30;12.95;;;9.18;;
52564;SDS011;38460;53.106;7.004;2023-08-06T03:43:55;13.88;;;10.23;;
52564;SDS011;38460;53.106;7.004;2023-08-06T03:46:21;12.63;;;9.10;;
52564;SDS011;38460;53.106;7.004;2023-08-06T03:48:47;13.13;;;9.60;;
52564;SDS011;38460;53.106;7.004;2023-08-06T03:51:12;15.00;;;9.93;;
52564;SDS011;38460;53.106;7.004;2023-08-06T03:53:38;12.88;;;9.32;;
52564;SDS011;38460;53.106;7.004;2023-08-06T03:56:04;13.32;;;9.80;;
52564;SDS011;38460;53.106;7.004;2023-08-06T03:58:30;12.32;;;9.32;;
52564;SDS011;38460;53.106;7.004;2023-08-06T04:01:02;16.58;;;10.52;;
52564;SDS011;38460;53.106;7.004;2023-08-06T04:03:29;13.60;;;9.73;;
52564;SDS011;38460;53.106;7.004;2023-08-06T04:05:54;13.85;;;8.93;;
52564;SDS011;38460;53.106;7.004;2023-08-06T04:08:20;14.18;;;9.10;;
52564;SDS011;38460;53.106;7.004;2023-08-06T04:10:49;12.15;;;8.90;;
52564;SDS011;38460;53.106;7.004;2023-08-06T04:13:16;12.98;;;9.23;;
52564;SDS011;38460;53.106;7.004;2023-08-06T04:15:42;12.77;;;8.82;;
52564;SDS011;38460;53.106;7.004;2023-08-06T04:18:07;13.02;;;9.55;;
52564;SDS011;38460;53.106;7.004;2023-08-06T04:20:33;12.23;;;9.13;;
52564;SDS011;38460;53.106;7.004;2023-08-06T04:22:59;12.30;;;9.85;;
52564;SDS011;38460;53.106;7.004;2023-08-06T04:25:30;12.15;;;8.85;;
52564;SDS011;38460;53.106;7.004;2023-08-06T04:27:56;15.82;;;9.80;;
52564;SDS011;38460;53.106;7.004;2023-08-06T04:30:22;15.63;;;10.15;;
52564;SDS011;38460;53.106;7.004;2023-08-06T04:32:49;11.60;;;9.50;;
52564;SDS011;38460;53.106;7.004;2023-08-06T04:35:16;11.57;;;9.38;;
52564;SDS011;38460;53.106;7.004;2023-08-06T04:37:41;13.82;;;10.02;;
52564;SDS011;38460;53.106;7.004;2023-08-06T04:40:07;11.85;;;8.85;;
52564;SDS011;38460;53.106;7.004;2023-08-06T04:42:33;12.73;;;8.48;;
52564;SDS011;38460;53.106;7.004;2023-08-06T04:45:00;13.75;;;8.77;;
52564;SDS011;38460;53.106;7.004;2023-08-06T04:47:27;11.80;;;8.80;;
52564;SDS011;38460;53.106;7.004;2023-08-06T04:49:52;12.65;;;8.55;;
52564;SDS011;38460;53.106;7.004;2023-08-06T04:52:18;11.18;;;8.82;;
52564;SDS011;38460;53.106;7.004;2023-08-06T04:54:44;10.15;;;8.65;;
52564;SDS011;38460;53.106;7.004;2023-08-06T04:57:10;9.73;;;7.38;;
52564;SDS011;38460;53.106;7.004;2023-08-06T04:59:35;14.40;;;9.23;;
52564;SDS011;38460;53.106;7.004;2023-08-06T05:02:01;10.63;;;8.50;;
52564;SDS011;38460;53.106;7.004;2023-08-06T05:04:27;13.77;;;8.38;;
52564;SDS011;38460;53.106;7.004;2023-08-06T05:06:53;11.98;;;8.40;;
52564;SDS011;38460;53.106;7.004;2023-08-06T05:09:19;12.25;;;8.18;;
52564;SDS011;38460;53.106;7.004;2023-08-06T05:11:46;12.30;;;8.52;;
52564;SDS011;38460;53.106;7.004;2023-08-06T05:14:12;11.13;;;7.88;;
52564;SDS011;38460;53.106;7.004;2023-08-06T05:16:38;11.30;;;7.90;;
52564;SDS011;38460;53.106;7.004;2023-08-06T05:19:04;11.25;;;8.60;;
52564;SDS011;38460;53.106;7.004;2023-08-06T05:21:29;10.65;;;7.63;;
52564;SDS011;38460;53.106;7.004;2023-08-06T05:23:55;10.98;;;7.05;;
52564;SDS011;38460;53.106;7.004;2023-08-06T05:26:21;10.90;;;8.25;;
52564;SDS011;38460;53.106;7.004;2023-08-06T05:28:47;12.07;;;7.13;;
52564;SDS011;38460;53.106;7.004;2023-08-06T05:31:12;11.18;;;8.15;;
52564;SDS011;38460;53.106;7.004;2023-08-06T05:33:38;10.55;;;7.28;;
52564;SDS011;38460;53.106;7.004;2023-08-06T05:36:04;10.77;;;7.75;;
52564;SDS011;38460;53.106;7.004;2023-08-06T05:38:30;11.93;;;7.55;;
52564;SDS011;38460;53.106;7.004;2023-08-06T05:40:55;8.63;;;6.93;;
52564;SDS011;38460;53.106;7.004;2023-08-06T05:43:22;11.57;;;8.23;;
52564;SDS011;38460;53.106;7.004;2023-08-06T05:45:50;11.00;;;7.60;;
52564;SDS011;38460;53.106;7.004;2023-08-06T05:48:16;11.93;;;7.80;;
52564;SDS011;38460;53.106;7.004;2023-08-06T05:50:42;11.75;;;8.82;;
52564;SDS011;38460;53.106;7.004;2023-08-06T05:53:07;11.95;;;7.93;;
52564;SDS011;38460;53.106;7.004;2023-08-06T05:55:33;11.57;;;7.95;;
52564;SDS011;38460;53.106;7.004;2023-08-06T05:57:59;10.60;;;8.30;;
52564;SDS011;38460;53.106;7.004;2023-08-06T06:00:25;11.73;;;7.75;;
52564;SDS011;38460;53.106;7.004;2023-08-06T06:02:51;9.38;;;6.43;;
52564;SDS011;38460;53.106;7.004;2023-08-06T06:05:17;10.25;;;7.80;;
52564;SDS011;38460;53.106;7.004;2023-08-06T06:07:42;9.52;;;7.38;;
52564;SDS011;38460;53.106;7.004;2023-08-06T06:10:08;10.13;;;7.82;;
52564;SDS011;38460;53.106;7.004;2023-08-06T06:12:34;9.70;;;6.93;;
52564;SDS011;38460;53.106;7.004;2023-08-06T06:15:00;11.15;;;8.20;;
52564;SDS011;38460;53.106;7.004;2023-08-06T06:17:26;11.82;;;8.00;;
52564;SDS011;38460;53.106;7.004;2023-08-06T06:19:52;10.48;;;8.13;;
52564;SDS011;38460;53.106;7.004;2023-08-06T06:22:18;10.40;;;7.68;;
52564;SDS011;38460;53.106;7.004;2023-08-06T06:24:44;10.77;;;7.85;;
52564;SDS011;38460;53.106;7.004;2023-08-06T06:27:10;10.18;;;7.60;;
52564;SDS011;38460;53.106;7.004;2023-08-06T06:29:35;10.35;;;7.65;;
52564;SDS011;38460;53.106;7.004;2023-08-06T06:32:01;11.35;;;8.30;;
52564;SDS011;38460;53.106;7.004;2023-08-06T06:34:27;14.20;;;8.45;;
52564;SDS011;38460;53.106;7.004;2023-08-06T06:36:52;9.48;;;6.70;;
52564;SDS011;38460;53.106;7.004;2023-08-06T06:39:18;11.80;;;9.15;;
52564;SDS011;38460;53.106;7.004;2023-08-06T06:41:44;12.07;;;8.82;;
52564;SDS011;38460;53.106;7.004;2023-08-06T06:44:10;12.68;;;8.98;;
52564;SDS011;38460;53.106;7.004;2023-08-06T06:46:36;10.55;;;8.10;;
52564;SDS011;38460;53.106;7.004;2023-08-06T06:49:01;11.57;;;9.02;;
52564;SDS011;38460;53.106;7.004;2023-08-06T06:51:27;11.23;;;7.80;;
52564;SDS011;38460;53.106;7.004;2023-08-06T06:53:53;14.32;;;8.55;;
52564;SDS011;38460;53.106;7.004;2023-08-06T06:56:18;12.10;;;8.60;;
52564;SDS011;38460;53.106;7.004;2023-08-06T06:58:44;10.30;;;7.90;;
52564;SDS011;38460;53.106;7.004;2023-08-06T07:01:10;10.82;;;8.20;;
52564;SDS011;38460;53.106;7.004;2023-08-06T07:03:36;11.18;;;8.90;;
52564;SDS011;38460;53.106;7.004;2023-08-06T07:06:02;11.10;;;8.05;;
52564;SDS011;38460;53.106;7.004;2023-08-06T07:08:29;10.07;;;7.55;;
52564;SDS011;38460;53.106;7.004;2023-08-06T07:11:04;11.00;;;8.27;;
52564;SDS011;38460;53.106;7.004;2023-08-06T07:13:31;10.60;;;7.88;;
52564;SDS011;38460;53.106;7.004;2023-08-06T07:15:57;8.73;;;7.68;;
52564;SDS011;38460;53.106;7.004;2023-08-06T07:18:23;10.60;;;9.00;;
52564;SDS011;38460;53.106;7.004;2023-08-06T07:20:49;11.65;;;8.95;;
52564;SDS011;38460;53.106;7.004;2023-08-06T07:23:16;11.18;;;8.75;;
52564;SDS011;38460;53.106;7.004;2023-08-06T07:25:42;10.18;;;8.10;;
52564;SDS011;38460;53.106;7.004;2023-08-06T07:28:08;9.57;;;8.00;;
52564;SDS011;38460;53.106;7.004;2023-08-06T07:30:38;11.13;;;9.35;;
52564;SDS011;38460;53.106;7.004;2023-08-06T07:33:04;9.23;;;8.10;;
52564;SDS011;38460;53.106;7.004;2023-08-06T07:35:30;9.52;;;7.80;;
52564;SDS011;38460;53.106;7.004;2023-08-06T07:37:56;9.90;;;8.15;;
52564;SDS011;38460;53.106;7.004;2023-08-06T07:40:21;12.18;;;9.70;;
52564;SDS011;38460;53.106;7.004;2023-08-06T07:42:47;12.05;;;9.30;;
52564;SDS011;38460;53.106;7.004;2023-08-06T07:45:13;11.93;;;9.25;;
52564;SDS011;38460;53.106;7.004;2023-08-06T07:47:39;11.18;;;9.10;;
52564;SDS011;38460;53.106;7.004;2023-08-06T07:50:05;10.10;;;8.15;;
52564;SDS011;38460;53.106;7.004;2023-08-06T07:52:31;11.10;;;8.57;;
52564;SDS011;38460;53.106;7.004;2023-08-06T07:54:57;10.30;;;8.27;;
52564;SDS011;38460;53.106;7.004;2023-08-06T07:57:23;11.82;;;9.45;;
52564;SDS011;38460;53.106;7.004;2023-08-06T07:59:49;13.35;;;10.35;;
52564;SDS011;38460;53.106;7.004;2023-08-06T08:02:15;12.13;;;9.77;;
52564;SDS011;38460;53.106;7.004;2023-08-06T08:04:41;12.90;;;9.85;;
52564;SDS011;38460;53.106;7.004;2023-08-06T08:07:07;13.65;;;9.38;;
52564;SDS011;38460;53.106;7.004;2023-08-06T08:09:34;11.68;;;9.35;;
52564;SDS011;38460;53.106;7.004;2023-08-06T08:12:01;11.35;;;9.25;;
52564;SDS011;38460;53.106;7.004;2023-08-06T08:14:28;12.27;;;9.40;;
52564;SDS011;38460;53.106;7.004;2023-08-06T08:16:54;11.75;;;8.45;;
52564;SDS011;38460;53.106;7.004;2023-08-06T08:19:20;12.40;;;9.65;;
52564;SDS011;38460;53.106;7.004;2023-08-06T08:21:46;10.85;;;8.75;;
52564;SDS011;38460;53.106;7.004;2023-08-06T08:24:12;10.35;;;8.07;;
52564;SDS011;38460;53.106;7.004;2023-08-06T08:26:37;7.63;;;6.82;;
52564;SDS011;38460;53.106;7.004;2023-08-06T08:29:03;7.38;;;6.53;;
52564;SDS011;38460;53.106;7.004;2023-08-06T08:31:29;10.02;;;7.57;;
52564;SDS011;38460;53.106;7.004;2023-08-06T08:33:54;8.68;;;7.78;;
52564;SDS011;38460;53.106;7.004;2023-08-06T08:36:20;10.45;;;7.47;;
52564;SDS011;38460;53.106;7.004;2023-08-06T08:38:46;11.10;;;7.05;;
52564;SDS011;38460;53.106;7.004;2023-08-06T08:41:12;7.50;;;6.55;;
52564;SDS011;38460;53.106;7.004;2023-08-06T08:43:38;6.82;;;6.10;;
52564;SDS011;38460;53.106;7.004;2023-08-06T08:46:05;6.22;;;5.63;;
52564;SDS011;38460;53.106;7.004;2023-08-06T08:48:34;8.50;;;6.43;;
52564;SDS011;38460;53.106;7.004;2023-08-06T08:50:59;6.28;;;5.35;;
52564;SDS011;38460;53.106;7.004;2023-08-06T08:53:27;7.22;;;5.30;;
52564;SDS011;38460;53.106;7.004;2023-08-06T08:55:54;7.57;;;5.72;;
52564;SDS011;38460;53.106;7.004;2023-08-06T08:58:20;6.68;;;5.70;;
52564;SDS011;38460;53.106;7.004;2023-08-06T09:00:46;8.18;;;6.10;;
52564;SDS011;38460;53.106;7.004;2023-08-06T09:03:15;6.65;;;5.28;;
52564;SDS011;38460;53.106;7.004;2023-08-06T09:05:43;7.18;;;5.38;;
52564;SDS011;38460;53.106;7.004;2023-08-06T09:08:11;6.30;;;5.70;;
52564;SDS011;38460;53.106;7.004;2023-08-06T09:10:40;5.60;;;3.13;;
52564;SDS011;38460;53.106;7.004;2023-08-06T09:13:08;4.55;;;3.30;;
52564;SDS011;38460;53.106;7.004;2023-08-06T09:15:33;5.53;;;3.47;;
52564;SDS011;38460;53.106;7.004;2023-08-06T09:17:59;4.63;;;3.30;;
52564;SDS011;38460;53.106;7.004;2023-08-06T09:20:25;5.60;;;3.45;;
52564;SDS011;38460;53.106;7.004;2023-08-06T09:22:54;5.38;;;2.90;;
52564;SDS011;38460;53.106;7.004;2023-08-06T09:25:23;4.22;;;3.10;;
52564;SDS011;38460;53.106;7.004;2023-08-06T09:27:50;3.42;;;2.63;;
52564;SDS011;38460;53.106;7.004;2023-08-06T09:30:33;3.22;;;2.10;;
52564;SDS011;38460;53.106;7.004;2023-08-06T09:32:59;3.47;;;2.38;;
52564;SDS011;38460;53.106;7.004;2023-08-06T09:35:29;2.97;;;2.15;;
52564;SDS011;38460;53.106;7.004;2023-08-06T09:37:55;3.55;;;2.05;;
52564;SDS011;38460;53.106;7.004;2023-08-06T09:40:32;2.75;;;1.90;;
52564;SDS011;38460;53.106;7.004;2023-08-06T09:42:58;2.80;;;1.65;;
52564;SDS011;38460;53.106;7.004;2023-08-06T09:45:37;2.72;;;1.85;;
52564;SDS011;38460;53.106;7.004;2023-08-06T09:48:07;2.95;;;1.80;;
52564;SDS011;38460;53.106;7.004;2023-08-06T09:50:34;3.97;;;1.85;;
52564;SDS011;38460;53.106;7.004;2023-08-06T09:53:02;3.85;;;2.05;;
52564;SDS011;38460;53.106;7.004;2023-08-06T09:55:33;3.08;;;1.98;;
52564;SDS011;38460;53.106;7.004;2023-08-06T09:57:59;2.80;;;2.03;;
52564;SDS011;38460;53.106;7.004;2023-08-06T10:00:25;3.28;;;2.00;;
52564;SDS011;38460;53.106;7.004;2023-08-06T10:02:52;3.10;;;1.90;;
52564;SDS011;38460;53.106;7.004;2023-08-06T10:05:21;3.90;;;2.08;;
52564;SDS011;38460;53.106;7.004;2023-08-06T10:07:49;3.22;;;1.95;;
52564;SDS011;38460;53.106;7.004;2023-08-06T10:10:16;3.40;;;1.90;;
52564;SDS011;38460;53.106;7.004;2023-08-06T10:12:52;3.13;;;1.90;;
52564;SDS011;38460;53.106;7.004;2023-08-06T10:15:22;3.15;;;2.10;;
52564;SDS011;38460;53.106;7.004;2023-08-06T10:17:54;2.13;;;1.60;;
52564;SDS011;38460;53.106;7.004;2023-08-06T10:20:22;2.53;;;1.77;;
52564;SDS011;38460;53.106;7.004;2023-08-06T10:23:09;2.40;;;1.70;;
52564;SDS011;38460;53.106;7.004;2023-08-06T10:25:35;2.95;;;1.98;;
52564;SDS011;38460;53.106;7.004;2023-08-06T10:28:11;3.30;;;1.65;;
52564;SDS011;38460;53.106;7.004;2023-08-06T10:33:12;2.47;;;1.75;;
52564;SDS011;38460;53.106;7.004;2023-08-06T10:35:45;3.03;;;1.90;;
52564;SDS011;38460;53.106;7.004;2023-08-06T10:38:24;3.00;;;1.80;;
52564;SDS011;38460;53.106;7.004;2023-08-06T10:43:25;2.67;;;1.67;;
52564;SDS011;38460;53.106;7.004;2023-08-06T10:45:51;3.90;;;2.22;;
52564;SDS011;38460;53.106;7.004;2023-08-06T10:48:28;3.45;;;2.45;;
52564;SDS011;38460;53.106;7.004;2023-08-06T10:50:56;2.90;;;1.98;;
52564;SDS011;38460;53.106;7.004;2023-08-06T10:53:22;3.30;;;1.98;;
52564;SDS011;38460;53.106;7.004;2023-08-06T10:55:47;7.05;;;2.20;;
52564;SDS011;38460;53.106;7.004;2023-08-06T10:58:15;2.50;;;1.70;;
52564;SDS011;38460;53.106;7.004;2023-08-06T11:00:41;3.35;;;1.98;;
52564;SDS011;38460;53.106;7.004;2023-08-06T11:03:07;2.55;;;1.48;;
52564;SDS011;38460;53.106;7.004;2023-08-06T11:05:34;2.88;;;1.75;;
52564;SDS011;38460;53.106;7.004;2023-08-06T11:08:01;3.42;;;1.73;;
52564;SDS011;38460;53.106;7.004;2023-08-06T11:10:27;4.07;;;1.70;;
52564;SDS011;38460;53.106;7.004;2023-08-06T11:12:53;2.63;;;1.83;;
52564;SDS011;38460;53.106;7.004;2023-08-06T11:15:20;3.47;;;1.75;;
52564;SDS011;38460;53.106;7.004;2023-08-06T11:17:46;3.25;;;2.00;;
52564;SDS011;38460;53.106;7.004;2023-08-06T11:20:12;3.63;;;1.90;;
52564;SDS011;38460;53.106;7.004;2023-08-06T11:22:38;3.22;;;1.98;;
52564;SDS011;38460;53.106;7.004;2023-08-06T11:25:05;3.30;;;2.05;;
52564;SDS011;38460;53.106;7.004;2023-08-06T11:27:31;2.55;;;1.80;;
52564;SDS011;38460;53.106;7.004;2023-08-06T11:29:57;3.10;;;1.55;;
52564;SDS011;38460;53.106;7.004;2023-08-06T11:32:23;2.97;;;1.80;;
52564;SDS011;38460;53.106;7.004;2023-08-06T11:34:49;3.05;;;1.75;;
52564;SDS011;38460;53.106;7.004;2023-08-06T11:37:15;3.50;;;2.15;;
52564;SDS011;38460;53.106;7.004;2023-08-06T11:39:44;3.63;;;1.92;;
52564;SDS011;38460;53.106;7.004;2023-08-06T11:42:11;3.83;;;1.88;;
52564;SDS011;38460;53.106;7.004;2023-08-06T11:44:37;3.65;;;2.00;;
52564;SDS011;38460;53.106;7.004;2023-08-06T11:47:03;2.78;;;1.58;;
52564;SDS011;38460;53.106;7.004;2023-08-06T11:52:20;2.75;;;2.05;;
52564;SDS011;38460;53.106;7.004;2023-08-06T11:57:29;3.47;;;1.80;;
52564;SDS011;38460;53.106;7.004;2023-08-06T12:00:09;4.32;;;1.70;;
52564;SDS011;38460;53.106;7.004;2023-08-06T12:02:39;2.95;;;1.60;;
52564;SDS011;38460;53.106;7.004;2023-08-06T12:05:13;3.47;;;1.50;;
52564;SDS011;38460;53.106;7.004;2023-08-06T12:07:44;8.25;;;4.10;;
52564;SDS011;38460;53.106;7.004;2023-08-06T12:10:12;2.78;;;1.63;;
52564;SDS011;38460;53.106;7.004;2023-08-06T12:12:38;1.83;;;1.27;;
52564;SDS011;38460;53.106;7.004;2023-08-06T12:15:05;2.63;;;1.80;;
52564;SDS011;38460;53.106;7.004;2023-08-06T12:17:32;3.10;;;1.80;;
52564;SDS011;38460;53.106;7.004;2023-08-06T12:19:57;2.78;;;1.48;;
52564;SDS011;38460;53.106;7.004;2023-08-06T12:22:23;3.42;;;1.65;;
52564;SDS011;38460;53.106;7.004;2023-08-06T12:24:49;3.50;;;1.80;;
52564;SDS011;38460;53.106;7.004;2023-08-06T12:27:15;3.42;;;1.50;;
52564;SDS011;38460;53.106;7.004;2023-08-06T12:29:47;2.35;;;1.52;;
52564;SDS011;38460;53.106;7.004;2023-08-06T12:32:13;3.13;;;1.50;;
52564;SDS011;38460;53.106;7.004;2023-08-06T12:34:40;3.05;;;1.65;;
52564;SDS011;38460;53.106;7.004;2023-08-06T12:37:07;2.72;;;1.70;;
52564;SDS011;38460;53.106;7.004;2023-08-06T12:39:33;3.10;;;1.40;;
52564;SDS011;38460;53.106;7.004;2023-08-06T12:42:03;3.58;;;1.75;;
52564;SDS011;38460;53.106;7.004;2023-08-06T12:44:30;2.58;;;1.40;;
52564;SDS011;38460;53.106;7.004;2023-08-06T12:46:57;2.78;;;1.77;;
52564;SDS011;38460;53.106;7.004;2023-08-06T12:49:24;4.18;;;1.85;;
52564;SDS011;38460;53.106;7.004;2023-08-06T12:51:53;2.42;;;1.55;;
52564;SDS011;38460;53.106;7.004;2023-08-06T12:54:19;3.65;;;1.83;;
52564;SDS011;38460;53.106;7.004;2023-08-06T12:56:46;3.85;;;1.73;;
52564;SDS011;38460;53.106;7.004;2023-08-06T12:59:13;3.00;;;1.55;;
52564;SDS011;38460;53.106;7.004;2023-08-06T13:01:40;2.22;;;1.60;;
52564;SDS011;38460;53.106;7.004;2023-08-06T13:04:07;3.55;;;1.63;;
52564;SDS011;38460;53.106;7.004;2023-08-06T13:06:32;2.67;;;1.50;;
52564;SDS011;38460;53.106;7.004;2023-08-06T13:09:05;3.25;;;1.60;;
52564;SDS011;38460;53.106;7.004;2023-08-06T13:11:32;3.85;;;1.65;;
52564;SDS011;38460;53.106;7.004;2023-08-06T13:14:10;4.05;;;1.85;;
52564;SDS011;38460;53.106;7.004;2023-08-06T13:16:37;3.17;;;1.90;;
52564;SDS011;38460;53.106;7.004;2023-08-06T13:19:05;2.83;;;1.90;;
52564;SDS011;38460;53.106;7.004;2023-08-06T13:21:35;3.88;;;1.90;;
52564;SDS011;38460;53.106;7.004;2023-08-06T13:24:15;3.35;;;1.95;;
52564;SDS011;38460;53.106;7.004;2023-08-06T13:26:40;2.70;;;1.60;;
52564;SDS011;38460;53.106;7.004;2023-08-06T13:29:06;3.83;;;1.77;;
52564;SDS011;38460;53.106;7.004;2023-08-06T13:31:32;3.65;;;1.73;;
52564;SDS011;38460;53.106;7.004;2023-08-06T13:33:58;3.35;;;1.98;;
52564;SDS011;38460;53.106;7.004;2023-08-06T13:36:25;2.97;;;2.13;;
52564;SDS011;38460;53.106;7.004;2023-08-06T13:38:52;5.57;;;2.00;;
52564;SDS011;38460;53.106;7.004;2023-08-06T13:41:18;5.03;;;1.98;;
52564;SDS011;38460;53.106;7.004;2023-08-06T13:43:43;2.72;;;1.90;;
52564;SDS011;38460;53.106;7.004;2023-08-06T13:46:10;2.80;;;1.85;;
52564;SDS011;38460;53.106;7.004;2023-08-06T13:48:41;3.08;;;1.77;;
52564;SDS011;38460;53.106;7.004;2023-08-06T13:51:07;3.50;;;1.80;;
52564;SDS011;38460;53.106;7.004;2023-08-06T13:53:33;2.78;;;1.70;;
52564;SDS011;38460;53.106;7.004;2023-08-06T13:55:59;2.80;;;1.48;;
52564;SDS011;38460;53.106;7.004;2023-08-06T13:58:24;3.42;;;1.80;;
52564;SDS011;38460;53.106;7.004;2023-08-06T14:00:51;2.75;;;1.90;;
52564;SDS011;38460;53.106;7.004;2023-08-06T14:03:19;3.00;;;1.60;;
52564;SDS011;38460;53.106;7.004;2023-08-06T14:05:45;3.25;;;1.58;;
52564;SDS011;38460;53.106;7.004;2023-08-06T14:08:11;3.13;;;1.65;;
52564;SDS011;38460;53.106;7.004;2023-08-06T14:10:38;1.98;;;1.30;;
52564;SDS011;38460;53.106;7.004;2023-08-06T14:13:04;3.88;;;1.80;;
52564;SDS011;38460;53.106;7.004;2023-08-06T14:15:30;2.30;;;1.63;;
52564;SDS011;38460;53.106;7.004;2023-08-06T14:17:56;3.97;;;2.00;;
52564;SDS011;38460;53.106;7.004;2023-08-06T14:20:21;2.83;;;1.60;;
52564;SDS011;38460;53.106;7.004;2023-08-06T14:22:48;3.20;;;1.63;;
52564;SDS011;38460;53.106;7.004;2023-08-06T14:25:14;3.42;;;1.50;;
52564;SDS011;38460;53.106;7.004;2023-08-06T14:27:39;3.33;;;1.70;;
52564;SDS011;38460;53.106;7.004;2023-08-06T14:30:06;2.67;;;1.70;;
52564;SDS011;38460;53.106;7.004;2023-08-06T14:32:33;3.75;;;2.15;;
52564;SDS011;38460;53.106;7.004;2023-08-06T14:34:58;3.17;;;1.58;;
52564;SDS011;38460;53.106;7.004;2023-08-06T14:37:24;4.05;;;1.65;;
52564;SDS011;38460;53.106;7.004;2023-08-06T14:39:50;3.05;;;1.60;;
52564;SDS011;38460;53.106;7.004;2023-08-06T14:42:17;3.20;;;1.58;;
52564;SDS011;38460;53.106;7.004;2023-08-06T14:44:42;4.50;;;1.80;;
52564;SDS011;38460;53.106;7.004;2023-08-06T14:47:08;3.75;;;1.58;;
52564;SDS011;38460;53.106;7.004;2023-08-06T14:49:34;2.53;;;1.50;;
52564;SDS011;38460;53.106;7.004;2023-08-06T14:52:00;3.13;;;1.60;;